Alder, MT (59710)

10:42 PM MDT on September 21, 2014 (GMT -0600)
Varney Bridge | Change Station
CLOSE
Current Station
Personal Weather Station
Location: Ennis, MT
Elevation: 5328 ft
Nearby Weather Stations

Elev 5328 ft 45.23 °N, 111.76 °W | Updated 12 minutes ago

Partly Cloudy
Partly Cloudy
60.7 °F
Feels Like 60.7 °F
N
5.0
Wind Variable Wind from SW
Gusts 6.0 mph

Today
High -- | Low -- °F
--% Chance of Precip.
Yesterday
High -- | Low -- °F
Precip. -- in
7:14 AM 7:27 PM
Waning Crescent, 4% visible
Pressure 30.01 in
Visibility 10.0 miles
Clouds Clear
Dew Point 43 °F
Humidity 52%
Rainfall 0.00 in
Snow Depth 1 in , 0 in , 1 in
UV 0 out of 12
Pollen 5.70 out of 12
Air Quality Not available.
Flu Activity Not available.
METAR KDLN 220253Z AUTO 33003KT 10SM CLR 16/07 A3011 RMK AO2 SLP163 T01610072 55001

More Conditions Fewer Conditions

Pressure 30.01 in
Visibility 10.0 miles
Clouds Clear
Dew Point 43 °F
Humidity 52%
Rainfall 0.00 in
Snow Depth 1 in , 0 in , 1 in
UV 0 out of 12
Pollen 5.70 out of 12
Air Quality Not available.
Flu Activity Not available.
METAR KDLN 220253Z AUTO 33003KT 10SM CLR 16/07 A3011 RMK AO2 SLP163 T01610072 55001

More Conditions Fewer Conditions

10-Day Weather Forecast

Almanac

Astronomy

Sep. 21, 2014 Rise Set
Actual Time 7:14 AM MDT 7:27 PM MDT
Civil Twilight 6:44 AM MDT 7:57 PM MDT
Nautical Twilight 6:10 AM MDT 8:31 PM MDT
Astronomical Twilight 5:34 AM MDT 9:07 PM MDT
Moon 4:46 AM MDT (9/21) 6:09 PM MDT (9/21)
Length of Visible Light 13h 12m
Length of Day
12h 13m
Tomorrow will be 3m 8s shorter.
Waning Crescent, 4% of the Moon is Illuminated
Sep 22
Waning Crescent
Sep 24
New
Oct 1
First Quarter
Oct 8
Full
Oct 15
Last Quarter

Yesterday's Extremes

State Highs State Lows

Community

WunderPhotos

Upload Photos

1,755,391 photos uploaded!

Nearby

Snow Depth

Station Depth Elevation
Black Pine 1 in 7210 ft
Hoodoo Basin 0 in 6050 ft
Wood Creek 1 in 5960 ft
Shower Falls 0 in 8100 ft
Onion Park 0 in 7410 ft

Earthquake Activity

City Distance Mag. Time & Date
No recent earthquake activity has been reported nearby.
Minimum magnitude displayed is 2.5.

Coastal Water Temperatures

Place Temperature
No Stations Reporting

Nearby Weather Stations